sensor_id;sensor_type;location;lat;lon;timestamp;P1;durP1;ratioP1;P2;durP2;ratioP2
71496;SDS011;59317;53.218;5.730;2022-08-03T00:00:05;15.15;;;5.03;;
71496;SDS011;59317;53.218;5.730;2022-08-03T00:02:31;16.55;;;4.93;;
71496;SDS011;59317;53.218;5.730;2022-08-03T00:04:57;15.23;;;5.03;;
71496;SDS011;59317;53.218;5.730;2022-08-03T00:07:23;13.65;;;4.97;;
71496;SDS011;59317;53.218;5.730;2022-08-03T00:09:49;14.38;;;5.03;;
71496;SDS011;59317;53.218;5.730;2022-08-03T00:12:15;14.65;;;5.15;;
71496;SDS011;59317;53.218;5.730;2022-08-03T00:14:41;13.50;;;5.00;;
71496;SDS011;59317;53.218;5.730;2022-08-03T00:17:07;13.93;;;4.90;;
71496;SDS011;59317;53.218;5.730;2022-08-03T00:19:35;15.50;;;5.10;;
71496;SDS011;59317;53.218;5.730;2022-08-03T00:22:01;14.60;;;5.32;;
71496;SDS011;59317;53.218;5.730;2022-08-03T00:24:27;13.25;;;4.78;;
71496;SDS011;59317;53.218;5.730;2022-08-03T00:26:55;14.27;;;4.80;;
71496;SDS011;59317;53.218;5.730;2022-08-03T00:29:21;15.05;;;5.15;;
71496;SDS011;59317;53.218;5.730;2022-08-03T00:31:46;14.95;;;5.30;;
71496;SDS011;59317;53.218;5.730;2022-08-03T00:34:12;15.88;;;5.20;;
71496;SDS011;59317;53.218;5.730;2022-08-03T00:36:38;18.08;;;5.38;;
71496;SDS011;59317;53.218;5.730;2022-08-03T00:39:04;13.50;;;5.05;;
71496;SDS011;59317;53.218;5.730;2022-08-03T00:41:30;18.25;;;5.13;;
71496;SDS011;59317;53.218;5.730;2022-08-03T00:43:56;14.68;;;5.20;;
71496;SDS011;59317;53.218;5.730;2022-08-03T00:46:22;15.30;;;4.93;;
71496;SDS011;59317;53.218;5.730;2022-08-03T00:48:49;14.85;;;5.00;;
71496;SDS011;59317;53.218;5.730;2022-08-03T00:51:15;15.95;;;4.80;;
71496;SDS011;59317;53.218;5.730;2022-08-03T00:53:41;15.10;;;4.78;;
71496;SDS011;59317;53.218;5.730;2022-08-03T00:56:07;14.50;;;4.50;;
71496;SDS011;59317;53.218;5.730;2022-08-03T00:58:33;15.40;;;4.72;;
71496;SDS011;59317;53.218;5.730;2022-08-03T01:00:59;16.10;;;4.72;;
71496;SDS011;59317;53.218;5.730;2022-08-03T01:03:25;15.85;;;4.30;;
71496;SDS011;59317;53.218;5.730;2022-08-03T01:16:02;18.60;;;4.68;;
71496;SDS011;59317;53.218;5.730;2022-08-03T01:18:34;14.32;;;4.53;;
71496;SDS011;59317;53.218;5.730;2022-08-03T01:21:02;15.95;;;4.57;;
71496;SDS011;59317;53.218;5.730;2022-08-03T01:31:34;15.67;;;4.73;;
71496;SDS011;59317;53.218;5.730;2022-08-03T01:34:02;15.00;;;4.18;;
71496;SDS011;59317;53.218;5.730;2022-08-03T01:36:29;14.65;;;4.05;;
71496;SDS011;59317;53.218;5.730;2022-08-03T01:38:57;15.00;;;4.17;;
71496;SDS011;59317;53.218;5.730;2022-08-03T01:41:33;15.13;;;4.20;;
71496;SDS011;59317;53.218;5.730;2022-08-03T01:44:00;13.95;;;3.95;;
71496;SDS011;59317;53.218;5.730;2022-08-03T01:46:26;15.35;;;4.20;;
71496;SDS011;59317;53.218;5.730;2022-08-03T01:48:53;15.73;;;4.22;;
71496;SDS011;59317;53.218;5.730;2022-08-03T01:51:19;12.60;;;4.20;;
71496;SDS011;59317;53.218;5.730;2022-08-03T01:53:47;16.73;;;4.60;;
71496;SDS011;59317;53.218;5.730;2022-08-03T01:56:15;15.93;;;4.07;;
71496;SDS011;59317;53.218;5.730;2022-08-03T01:58:41;14.60;;;4.10;;
71496;SDS011;59317;53.218;5.730;2022-08-03T02:01:09;16.58;;;4.28;;
71496;SDS011;59317;53.218;5.730;2022-08-03T02:03:37;15.88;;;4.40;;
71496;SDS011;59317;53.218;5.730;2022-08-03T02:06:04;15.20;;;4.35;;
71496;SDS011;59317;53.218;5.730;2022-08-03T02:08:32;15.13;;;4.15;;
71496;SDS011;59317;53.218;5.730;2022-08-03T02:10:58;12.77;;;4.30;;
71496;SDS011;59317;53.218;5.730;2022-08-03T02:13:26;14.02;;;4.55;;
71496;SDS011;59317;53.218;5.730;2022-08-03T02:15:53;16.60;;;4.47;;
71496;SDS011;59317;53.218;5.730;2022-08-03T02:18:20;17.15;;;4.70;;
71496;SDS011;59317;53.218;5.730;2022-08-03T02:20:47;14.75;;;4.30;;
71496;SDS011;59317;53.218;5.730;2022-08-03T02:23:16;13.02;;;4.43;;
71496;SDS011;59317;53.218;5.730;2022-08-03T02:25:46;16.50;;;4.70;;
71496;SDS011;59317;53.218;5.730;2022-08-03T02:28:24;17.90;;;4.57;;
71496;SDS011;59317;53.218;5.730;2022-08-03T02:30:52;17.33;;;4.55;;
71496;SDS011;59317;53.218;5.730;2022-08-03T02:33:21;14.82;;;4.50;;
71496;SDS011;59317;53.218;5.730;2022-08-03T02:35:49;16.58;;;4.25;;
71496;SDS011;59317;53.218;5.730;2022-08-03T02:38:17;16.80;;;4.07;;
71496;SDS011;59317;53.218;5.730;2022-08-03T02:40:44;13.85;;;4.00;;
71496;SDS011;59317;53.218;5.730;2022-08-03T02:43:11;15.02;;;4.05;;
71496;SDS011;59317;53.218;5.730;2022-08-03T02:45:41;16.63;;;4.43;;
71496;SDS011;59317;53.218;5.730;2022-08-03T02:48:08;16.38;;;4.30;;
71496;SDS011;59317;53.218;5.730;2022-08-03T02:50:36;17.07;;;4.03;;
71496;SDS011;59317;53.218;5.730;2022-08-03T02:53:02;15.85;;;4.22;;
71496;SDS011;59317;53.218;5.730;2022-08-03T02:55:29;17.30;;;4.00;;
71496;SDS011;59317;53.218;5.730;2022-08-03T02:57:56;15.75;;;4.43;;
71496;SDS011;59317;53.218;5.730;2022-08-03T03:00:23;17.77;;;4.00;;
71496;SDS011;59317;53.218;5.730;2022-08-03T03:02:49;13.57;;;3.97;;
71496;SDS011;59317;53.218;5.730;2022-08-03T03:05:15;14.90;;;3.90;;
71496;SDS011;59317;53.218;5.730;2022-08-03T03:07:41;15.57;;;4.40;;
71496;SDS011;59317;53.218;5.730;2022-08-03T03:10:08;13.77;;;4.00;;
71496;SDS011;59317;53.218;5.730;2022-08-03T03:12:37;15.25;;;4.50;;
71496;SDS011;59317;53.218;5.730;2022-08-03T03:15:06;15.93;;;4.47;;
71496;SDS011;59317;53.218;5.730;2022-08-03T03:17:32;15.07;;;4.50;;
71496;SDS011;59317;53.218;5.730;2022-08-03T03:19:59;14.18;;;4.15;;
71496;SDS011;59317;53.218;5.730;2022-08-03T03:22:25;14.98;;;4.43;;
71496;SDS011;59317;53.218;5.730;2022-08-03T03:24:52;14.07;;;4.28;;
71496;SDS011;59317;53.218;5.730;2022-08-03T03:27:19;20.80;;;4.53;;
71496;SDS011;59317;53.218;5.730;2022-08-03T03:29:45;17.63;;;4.38;;
71496;SDS011;59317;53.218;5.730;2022-08-03T03:32:11;15.67;;;4.20;;
71496;SDS011;59317;53.218;5.730;2022-08-03T03:34:37;17.25;;;4.53;;
71496;SDS011;59317;53.218;5.730;2022-08-03T03:37:03;17.20;;;4.40;;
71496;SDS011;59317;53.218;5.730;2022-08-03T03:39:29;15.52;;;4.10;;
71496;SDS011;59317;53.218;5.730;2022-08-03T03:41:55;16.90;;;4.38;;
71496;SDS011;59317;53.218;5.730;2022-08-03T03:44:25;12.63;;;3.92;;
71496;SDS011;59317;53.218;5.730;2022-08-03T03:46:51;15.88;;;4.00;;
71496;SDS011;59317;53.218;5.730;2022-08-03T03:49:17;15.82;;;4.20;;
71496;SDS011;59317;53.218;5.730;2022-08-03T03:51:43;15.95;;;4.38;;
71496;SDS011;59317;53.218;5.730;2022-08-03T03:54:09;14.75;;;4.05;;
71496;SDS011;59317;53.218;5.730;2022-08-03T03:56:35;11.48;;;4.07;;
71496;SDS011;59317;53.218;5.730;2022-08-03T03:59:01;13.85;;;4.03;;
71496;SDS011;59317;53.218;5.730;2022-08-03T04:01:27;15.35;;;4.10;;
71496;SDS011;59317;53.218;5.730;2022-08-03T04:03:53;14.93;;;4.10;;
71496;SDS011;59317;53.218;5.730;2022-08-03T04:06:19;17.95;;;4.10;;
71496;SDS011;59317;53.218;5.730;2022-08-03T04:09:03;16.63;;;3.90;;
71496;SDS011;59317;53.218;5.730;2022-08-03T04:11:52;17.58;;;3.80;;
71496;SDS011;59317;53.218;5.730;2022-08-03T04:17:03;14.63;;;4.00;;
71496;SDS011;59317;53.218;5.730;2022-08-03T04:19:31;13.02;;;3.88;;
71496;SDS011;59317;53.218;5.730;2022-08-03T04:21:59;18.17;;;4.07;;
71496;SDS011;59317;53.218;5.730;2022-08-03T04:24:26;15.77;;;4.07;;
71496;SDS011;59317;53.218;5.730;2022-08-03T04:26:55;20.23;;;4.18;;
71496;SDS011;59317;53.218;5.730;2022-08-03T04:29:22;15.70;;;3.90;;
71496;SDS011;59317;53.218;5.730;2022-08-03T04:31:49;15.98;;;3.67;;
71496;SDS011;59317;53.218;5.730;2022-08-03T04:34:15;18.60;;;4.10;;
71496;SDS011;59317;53.218;5.730;2022-08-03T04:36:46;15.13;;;3.55;;
71496;SDS011;59317;53.218;5.730;2022-08-03T04:39:15;18.40;;;3.92;;
71496;SDS011;59317;53.218;5.730;2022-08-03T04:41:45;16.45;;;4.07;;
71496;SDS011;59317;53.218;5.730;2022-08-03T04:44:26;14.38;;;3.40;;
71496;SDS011;59317;53.218;5.730;2022-08-03T04:47:09;13.40;;;3.70;;
71496;SDS011;59317;53.218;5.730;2022-08-03T04:49:35;18.38;;;3.70;;
71496;SDS011;59317;53.218;5.730;2022-08-03T04:52:02;16.75;;;4.15;;
71496;SDS011;59317;53.218;5.730;2022-08-03T04:54:41;15.50;;;3.55;;
71496;SDS011;59317;53.218;5.730;2022-08-03T04:57:12;12.30;;;3.20;;
71496;SDS011;59317;53.218;5.730;2022-08-03T04:59:38;15.82;;;3.63;;
71496;SDS011;59317;53.218;5.730;2022-08-03T05:02:04;15.07;;;3.70;;
71496;SDS011;59317;53.218;5.730;2022-08-03T05:04:31;16.97;;;3.40;;
71496;SDS011;59317;53.218;5.730;2022-08-03T05:06:56;15.50;;;3.40;;
71496;SDS011;59317;53.218;5.730;2022-08-03T05:09:22;14.87;;;3.80;;
71496;SDS011;59317;53.218;5.730;2022-08-03T05:11:48;14.10;;;3.53;;
71496;SDS011;59317;53.218;5.730;2022-08-03T05:14:14;13.47;;;3.30;;
71496;SDS011;59317;53.218;5.730;2022-08-03T05:16:40;16.07;;;3.63;;
71496;SDS011;59317;53.218;5.730;2022-08-03T05:19:06;14.40;;;3.37;;
71496;SDS011;59317;53.218;5.730;2022-08-03T05:21:32;16.60;;;3.97;;
71496;SDS011;59317;53.218;5.730;2022-08-03T05:23:58;18.13;;;3.30;;
71496;SDS011;59317;53.218;5.730;2022-08-03T05:26:24;17.33;;;3.90;;
71496;SDS011;59317;53.218;5.730;2022-08-03T05:28:50;15.87;;;3.97;;
71496;SDS011;59317;53.218;5.730;2022-08-03T05:31:17;16.05;;;3.60;;
71496;SDS011;59317;53.218;5.730;2022-08-03T05:33:43;16.67;;;3.60;;
71496;SDS011;59317;53.218;5.730;2022-08-03T05:36:09;16.67;;;3.92;;
71496;SDS011;59317;53.218;5.730;2022-08-03T05:38:35;16.42;;;3.60;;
71496;SDS011;59317;53.218;5.730;2022-08-03T05:41:02;14.73;;;3.53;;
71496;SDS011;59317;53.218;5.730;2022-08-03T05:43:28;18.23;;;3.80;;
71496;SDS011;59317;53.218;5.730;2022-08-03T05:45:55;14.18;;;4.05;;
71496;SDS011;59317;53.218;5.730;2022-08-03T05:48:23;15.40;;;3.63;;
71496;SDS011;59317;53.218;5.730;2022-08-03T05:50:49;16.30;;;3.53;;
71496;SDS011;59317;53.218;5.730;2022-08-03T05:53:15;16.67;;;3.63;;
71496;SDS011;59317;53.218;5.730;2022-08-03T05:55:41;16.03;;;3.43;;
71496;SDS011;59317;53.218;5.730;2022-08-03T05:58:07;17.23;;;3.47;;
71496;SDS011;59317;53.218;5.730;2022-08-03T06:00:33;13.13;;;3.30;;
71496;SDS011;59317;53.218;5.730;2022-08-03T06:02:59;17.42;;;3.67;;
71496;SDS011;59317;53.218;5.730;2022-08-03T06:05:25;15.07;;;3.60;;
71496;SDS011;59317;53.218;5.730;2022-08-03T06:07:52;18.27;;;3.90;;
71496;SDS011;59317;53.218;5.730;2022-08-03T06:10:18;15.38;;;3.67;;
71496;SDS011;59317;53.218;5.730;2022-08-03T06:12:44;15.63;;;3.30;;
71496;SDS011;59317;53.218;5.730;2022-08-03T06:15:13;17.98;;;3.85;;
71496;SDS011;59317;53.218;5.730;2022-08-03T06:17:46;15.40;;;3.50;;
71496;SDS011;59317;53.218;5.730;2022-08-03T06:20:12;15.30;;;3.60;;
71496;SDS011;59317;53.218;5.730;2022-08-03T06:22:38;16.47;;;3.80;;
71496;SDS011;59317;53.218;5.730;2022-08-03T06:25:04;14.90;;;3.90;;
71496;SDS011;59317;53.218;5.730;2022-08-03T06:27:31;16.58;;;3.65;;
71496;SDS011;59317;53.218;5.730;2022-08-03T06:29:57;15.23;;;3.65;;
71496;SDS011;59317;53.218;5.730;2022-08-03T06:32:23;15.57;;;3.55;;
71496;SDS011;59317;53.218;5.730;2022-08-03T06:34:49;18.35;;;3.70;;
71496;SDS011;59317;53.218;5.730;2022-08-03T06:37:15;14.95;;;3.35;;
71496;SDS011;59317;53.218;5.730;2022-08-03T06:39:52;17.65;;;3.92;;
71496;SDS011;59317;53.218;5.730;2022-08-03T06:42:21;15.15;;;3.70;;
71496;SDS011;59317;53.218;5.730;2022-08-03T06:44:50;17.83;;;4.10;;
71496;SDS011;59317;53.218;5.730;2022-08-03T06:47:16;18.35;;;3.80;;
71496;SDS011;59317;53.218;5.730;2022-08-03T06:49:42;16.25;;;3.83;;
71496;SDS011;59317;53.218;5.730;2022-08-03T06:52:08;17.60;;;3.70;;
71496;SDS011;59317;53.218;5.730;2022-08-03T06:54:34;13.68;;;3.95;;
71496;SDS011;59317;53.218;5.730;2022-08-03T06:57:00;16.67;;;3.80;;
71496;SDS011;59317;53.218;5.730;2022-08-03T06:59:26;15.63;;;3.93;;
71496;SDS011;59317;53.218;5.730;2022-08-03T07:01:53;15.18;;;4.18;;
71496;SDS011;59317;53.218;5.730;2022-08-03T07:04:19;14.20;;;3.65;;
71496;SDS011;59317;53.218;5.730;2022-08-03T07:06:45;17.88;;;3.58;;
71496;SDS011;59317;53.218;5.730;2022-08-03T07:09:11;16.55;;;3.88;;
71496;SDS011;59317;53.218;5.730;2022-08-03T07:11:37;18.02;;;3.85;;
71496;SDS011;59317;53.218;5.730;2022-08-03T07:14:03;15.50;;;3.78;;
71496;SDS011;59317;53.218;5.730;2022-08-03T07:16:29;16.60;;;3.73;;
71496;SDS011;59317;53.218;5.730;2022-08-03T07:18:54;17.60;;;4.00;;
71496;SDS011;59317;53.218;5.730;2022-08-03T07:21:21;16.07;;;3.70;;
71496;SDS011;59317;53.218;5.730;2022-08-03T07:23:47;16.45;;;3.75;;
71496;SDS011;59317;53.218;5.730;2022-08-03T07:26:15;17.75;;;3.70;;
71496;SDS011;59317;53.218;5.730;2022-08-03T07:28:41;17.77;;;3.88;;
71496;SDS011;59317;53.218;5.730;2022-08-03T07:31:07;17.48;;;3.75;;
71496;SDS011;59317;53.218;5.730;2022-08-03T07:33:33;15.82;;;3.80;;
71496;SDS011;59317;53.218;5.730;2022-08-03T07:35:59;17.00;;;3.97;;
71496;SDS011;59317;53.218;5.730;2022-08-03T07:38:25;18.80;;;4.30;;
71496;SDS011;59317;53.218;5.730;2022-08-03T07:40:52;17.85;;;4.40;;
71496;SDS011;59317;53.218;5.730;2022-08-03T07:43:18;16.23;;;4.22;;
71496;SDS011;59317;53.218;5.730;2022-08-03T07:45:44;17.27;;;4.47;;
71496;SDS011;59317;53.218;5.730;2022-08-03T07:48:10;16.90;;;4.60;;
71496;SDS011;59317;53.218;5.730;2022-08-03T07:50:36;19.50;;;4.85;;
71496;SDS011;59317;53.218;5.730;2022-08-03T07:53:02;17.10;;;5.07;;
71496;SDS011;59317;53.218;5.730;2022-08-03T07:55:28;19.67;;;5.20;;
71496;SDS011;59317;53.218;5.730;2022-08-03T07:58:04;15.10;;;4.90;;
71496;SDS011;59317;53.218;5.730;2022-08-03T08:00:33;16.20;;;4.88;;
71496;SDS011;59317;53.218;5.730;2022-08-03T08:02:59;17.27;;;5.17;;
71496;SDS011;59317;53.218;5.730;2022-08-03T08:05:25;15.23;;;5.10;;
71496;SDS011;59317;53.218;5.730;2022-08-03T08:07:52;15.63;;;4.93;;
71496;SDS011;59317;53.218;5.730;2022-08-03T08:10:24;15.88;;;5.20;;
71496;SDS011;59317;53.218;5.730;2022-08-03T08:12:50;18.50;;;5.70;;
71496;SDS011;59317;53.218;5.730;2022-08-03T08:15:25;14.13;;;5.35;;
71496;SDS011;59317;53.218;5.730;2022-08-03T08:17:52;16.13;;;5.60;;
71496;SDS011;59317;53.218;5.730;2022-08-03T08:20:25;17.05;;;6.25;;
71496;SDS011;59317;53.218;5.730;2022-08-03T08:22:52;19.00;;;6.47;;
71496;SDS011;59317;53.218;5.730;2022-08-03T08:25:19;17.38;;;6.13;;
71496;SDS011;59317;53.218;5.730;2022-08-03T08:27:46;19.42;;;6.47;;
71496;SDS011;59317;53.218;5.730;2022-08-03T08:30:13;17.83;;;6.33;;
71496;SDS011;59317;53.218;5.730;2022-08-03T08:32:49;16.47;;;6.00;;
71496;SDS011;59317;53.218;5.730;2022-08-03T08:35:16;18.00;;;6.43;;
71496;SDS011;59317;53.218;5.730;2022-08-03T08:37:42;16.92;;;6.00;;
71496;SDS011;59317;53.218;5.730;2022-08-03T08:40:17;20.85;;;7.15;;
71496;SDS011;59317;53.218;5.730;2022-08-03T08:42:45;20.17;;;6.85;;
71496;SDS011;59317;53.218;5.730;2022-08-03T08:45:14;19.50;;;7.43;;
71496;SDS011;59317;53.218;5.730;2022-08-03T08:47:45;16.92;;;7.32;;
71496;SDS011;59317;53.218;5.730;2022-08-03T08:50:17;18.67;;;8.07;;
71496;SDS011;59317;53.218;5.730;2022-08-03T08:52:44;18.65;;;8.23;;
71496;SDS011;59317;53.218;5.730;2022-08-03T08:55:13;19.10;;;7.53;;
71496;SDS011;59317;53.218;5.730;2022-08-03T08:57:46;21.50;;;7.65;;
71496;SDS011;59317;53.218;5.730;2022-08-03T09:00:13;16.77;;;7.30;;
71496;SDS011;59317;53.218;5.730;2022-08-03T09:02:40;17.60;;;8.07;;
71496;SDS011;59317;53.218;5.730;2022-08-03T09:05:08;18.13;;;7.70;;
71496;SDS011;59317;53.218;5.730;2022-08-03T09:07:35;15.93;;;6.82;;
71496;SDS011;59317;53.218;5.730;2022-08-03T09:10:02;19.50;;;7.72;;
71496;SDS011;59317;53.218;5.730;2022-08-03T09:12:28;19.30;;;7.60;;
71496;SDS011;59317;53.218;5.730;2022-08-03T09:14:54;22.67;;;8.18;;
71496;SDS011;59317;53.218;5.730;2022-08-03T09:17:20;22.25;;;7.20;;
71496;SDS011;59317;53.218;5.730;2022-08-03T09:20:05;22.27;;;7.70;;
71496;SDS011;59317;53.218;5.730;2022-08-03T09:22:34;20.02;;;7.28;;
71496;SDS011;59317;53.218;5.730;2022-08-03T09:25:04;18.90;;;7.20;;
71496;SDS011;59317;53.218;5.730;2022-08-03T09:27:41;19.58;;;6.85;;
71496;SDS011;59317;53.218;5.730;2022-08-03T09:30:11;18.95;;;7.13;;
71496;SDS011;59317;53.218;5.730;2022-08-03T09:32:37;18.77;;;6.95;;
71496;SDS011;59317;53.218;5.730;2022-08-03T09:35:03;18.58;;;6.82;;
71496;SDS011;59317;53.218;5.730;2022-08-03T09:37:30;20.55;;;6.55;;
71496;SDS011;59317;53.218;5.730;2022-08-03T09:39:56;19.10;;;6.75;;
71496;SDS011;59317;53.218;5.730;2022-08-03T09:42:22;21.00;;;7.65;;
71496;SDS011;59317;53.218;5.730;2022-08-03T09:44:48;16.55;;;6.60;;
71496;SDS011;59317;53.218;5.730;2022-08-03T09:47:16;20.25;;;7.85;;
71496;SDS011;59317;53.218;5.730;2022-08-03T09:49:58;18.58;;;7.53;;
71496;SDS011;59317;53.218;5.730;2022-08-03T09:52:29;19.55;;;7.72;;
71496;SDS011;59317;53.218;5.730;2022-08-03T09:54:55;18.98;;;7.88;;
71496;SDS011;59317;53.218;5.730;2022-08-03T09:57:22;22.45;;;8.30;;
71496;SDS011;59317;53.218;5.730;2022-08-03T09:59:48;19.52;;;7.95;;
71496;SDS011;59317;53.218;5.730;2022-08-03T10:02:22;18.90;;;7.60;;
71496;SDS011;59317;53.218;5.730;2022-08-03T10:05:04;19.70;;;7.25;;
71496;SDS011;59317;53.218;5.730;2022-08-03T10:13:09;20.23;;;7.28;;
71496;SDS011;59317;53.218;5.730;2022-08-03T10:15:42;19.17;;;6.88;;
71496;SDS011;59317;53.218;5.730;2022-08-03T10:20:57;19.30;;;7.37;;
71496;SDS011;59317;53.218;5.730;2022-08-03T10:23:38;19.95;;;7.18;;
71496;SDS011;59317;53.218;5.730;2022-08-03T10:26:20;25.57;;;7.47;;
71496;SDS011;59317;53.218;5.730;2022-08-03T10:28:52;16.88;;;7.40;;
71496;SDS011;59317;53.218;5.730;2022-08-03T10:31:27;18.55;;;7.90;;
71496;SDS011;59317;53.218;5.730;2022-08-03T10:36:54;18.10;;;7.57;;
71496;SDS011;59317;53.218;5.730;2022-08-03T10:39:44;19.60;;;8.15;;
71496;SDS011;59317;53.218;5.730;2022-08-03T10:42:58;19.17;;;8.73;;
71496;SDS011;59317;53.218;5.730;2022-08-03T10:45:31;22.93;;;8.17;;
71496;SDS011;59317;53.218;5.730;2022-08-03T10:50:44;20.42;;;8.32;;
71496;SDS011;59317;53.218;5.730;2022-08-03T10:53:35;19.77;;;7.90;;
71496;SDS011;59317;53.218;5.730;2022-08-03T10:56:01;19.38;;;7.10;;
71496;SDS011;59317;53.218;5.730;2022-08-03T11:04:22;19.27;;;6.83;;
71496;SDS011;59317;53.218;5.730;2022-08-03T11:07:21;22.63;;;5.80;;
71496;SDS011;59317;53.218;5.730;2022-08-03T11:09:50;21.80;;;5.70;;
71496;SDS011;59317;53.218;5.730;2022-08-03T11:12:26;20.40;;;4.78;;
71496;SDS011;59317;53.218;5.730;2022-08-03T11:15:03;21.63;;;4.95;;
71496;SDS011;59317;53.218;5.730;2022-08-03T11:17:36;17.47;;;5.07;;
71496;SDS011;59317;53.218;5.730;2022-08-03T11:20:08;18.90;;;5.00;;
71496;SDS011;59317;53.218;5.730;2022-08-03T11:26:06;18.37;;;4.67;;
71496;SDS011;59317;53.218;5.730;2022-08-03T11:28:37;20.13;;;4.35;;
71496;SDS011;59317;53.218;5.730;2022-08-03T11:39:40;18.92;;;4.40;;
71496;SDS011;59317;53.218;5.730;2022-08-03T11:44:54;20.48;;;4.32;;
71496;SDS011;59317;53.218;5.730;2022-08-03T11:47:24;17.52;;;4.20;;
71496;SDS011;59317;53.218;5.730;2022-08-03T11:50:02;16.50;;;4.30;;
71496;SDS011;59317;53.218;5.730;2022-08-03T11:52:35;20.53;;;4.47;;
71496;SDS011;59317;53.218;5.730;2022-08-03T11:55:08;23.95;;;5.40;;
71496;SDS011;59317;53.218;5.730;2022-08-03T11:57:35;18.17;;;4.32;;
71496;SDS011;59317;53.218;5.730;2022-08-03T12:00:02;21.23;;;5.00;;
71496;SDS011;59317;53.218;5.730;2022-08-03T12:05:32;18.67;;;4.50;;
71496;SDS011;59317;53.218;5.730;2022-08-03T12:08:08;19.02;;;4.13;;
71496;SDS011;59317;53.218;5.730;2022-08-03T12:10:53;17.52;;;4.07;;
71496;SDS011;59317;53.218;5.730;2022-08-03T12:13:19;16.95;;;4.40;;
71496;SDS011;59317;53.218;5.730;2022-08-03T12:15:53;18.55;;;4.85;;
71496;SDS011;59317;53.218;5.730;2022-08-03T12:18:20;20.37;;;5.37;;
71496;SDS011;59317;53.218;5.730;2022-08-03T12:20:47;18.80;;;4.67;;
71496;SDS011;59317;53.218;5.730;2022-08-03T12:23:17;17.98;;;4.63;;
71496;SDS011;59317;53.218;5.730;2022-08-03T12:25:45;17.05;;;4.70;;
71496;SDS011;59317;53.218;5.730;2022-08-03T12:28:23;19.60;;;5.00;;
71496;SDS011;59317;53.218;5.730;2022-08-03T12:30:52;18.20;;;4.85;;
71496;SDS011;59317;53.218;5.730;2022-08-03T12:33:20;18.70;;;4.57;;
71496;SDS011;59317;53.218;5.730;2022-08-03T12:36:08;18.80;;;4.90;;
71496;SDS011;59317;53.218;5.730;2022-08-03T12:38:35;18.15;;;4.80;;
71496;SDS011;59317;53.218;5.730;2022-08-03T12:41:05;19.25;;;4.68;;
71496;SDS011;59317;53.218;5.730;2022-08-03T12:43:33;18.35;;;5.18;;
71496;SDS011;59317;53.218;5.730;2022-08-03T12:46:14;18.63;;;4.60;;
71496;SDS011;59317;53.218;5.730;2022-08-03T12:48:57;20.70;;;4.75;;
71496;SDS011;59317;53.218;5.730;2022-08-03T12:51:30;17.70;;;5.28;;
71496;SDS011;59317;53.218;5.730;2022-08-03T12:54:05;17.00;;;4.47;;
71496;SDS011;59317;53.218;5.730;2022-08-03T12:59:25;18.60;;;4.93;;
71496;SDS011;59317;53.218;5.730;2022-08-03T13:01:52;17.47;;;4.43;;
71496;SDS011;59317;53.218;5.730;2022-08-03T13:04:47;16.95;;;5.13;;
71496;SDS011;59317;53.218;5.730;2022-08-03T13:07:22;18.73;;;5.10;;
71496;SDS011;59317;53.218;5.730;2022-08-03T13:09:56;17.75;;;4.95;;
71496;SDS011;59317;53.218;5.730;2022-08-03T13:15:24;20.13;;;4.93;;
71496;SDS011;59317;53.218;5.730;2022-08-03T13:17:55;16.98;;;4.90;;
71496;SDS011;59317;53.218;5.730;2022-08-03T13:20:30;17.83;;;5.30;;
71496;SDS011;59317;53.218;5.730;2022-08-03T13:22:59;20.23;;;4.93;;
71496;SDS011;59317;53.218;5.730;2022-08-03T13:25:28;19.90;;;5.15;;
71496;SDS011;59317;53.218;5.730;2022-08-03T13:27:54;15.82;;;3.88;;
71496;SDS011;59317;53.218;5.730;2022-08-03T13:30:21;18.83;;;4.70;;
71496;SDS011;59317;53.218;5.730;2022-08-03T13:32:55;15.70;;;4.50;;
71496;SDS011;59317;53.218;5.730;2022-08-03T13:35:24;19.55;;;4.97;;
71496;SDS011;59317;53.218;5.730;2022-08-03T13:37:53;16.63;;;4.20;;
71496;SDS011;59317;53.218;5.730;2022-08-03T13:40:31;17.73;;;4.90;;
71496;SDS011;59317;53.218;5.730;2022-08-03T13:43:13;18.10;;;4.40;;
71496;SDS011;59317;53.218;5.730;2022-08-03T13:45:52;20.23;;;4.40;;
71496;SDS011;59317;53.218;5.730;2022-08-03T13:48:33;17.45;;;4.15;;
71496;SDS011;59317;53.218;5.730;2022-08-03T13:51:06;14.30;;;3.80;;
71496;SDS011;59317;53.218;5.730;2022-08-03T13:53:32;18.73;;;4.63;;
71496;SDS011;59317;53.218;5.730;2022-08-03T13:55:58;16.05;;;4.43;;
71496;SDS011;59317;53.218;5.730;2022-08-03T13:58:24;15.13;;;4.28;;
71496;SDS011;59317;53.218;5.730;2022-08-03T14:00:53;15.82;;;4.18;;
71496;SDS011;59317;53.218;5.730;2022-08-03T14:03:25;20.13;;;4.70;;
71496;SDS011;59317;53.218;5.730;2022-08-03T14:06:12;16.40;;;4.50;;
71496;SDS011;59317;53.218;5.730;2022-08-03T14:08:37;15.13;;;4.60;;
71496;SDS011;59317;53.218;5.730;2022-08-03T14:11:12;16.73;;;4.45;;
71496;SDS011;59317;53.218;5.730;2022-08-03T14:13:50;14.80;;;4.35;;
71496;SDS011;59317;53.218;5.730;2022-08-03T14:16:36;14.50;;;4.07;;
71496;SDS011;59317;53.218;5.730;2022-08-03T14:27:00;15.55;;;4.90;;
71496;SDS011;59317;53.218;5.730;2022-08-03T14:29:32;16.75;;;4.10;;
71496;SDS011;59317;53.218;5.730;2022-08-03T14:32:12;16.25;;;4.60;;
71496;SDS011;59317;53.218;5.730;2022-08-03T14:37:48;14.13;;;3.88;;
71496;SDS011;59317;53.218;5.730;2022-08-03T14:49:36;13.17;;;3.80;;
71496;SDS011;59317;53.218;5.730;2022-08-03T14:52:20;13.32;;;3.50;;
71496;SDS011;59317;53.218;5.730;2022-08-03T14:54:59;13.40;;;3.93;;
71496;SDS011;59317;53.218;5.730;2022-08-03T15:00:28;18.13;;;4.22;;
71496;SDS011;59317;53.218;5.730;2022-08-03T15:03:06;15.93;;;3.90;;
71496;SDS011;59317;53.218;5.730;2022-08-03T15:05:45;17.50;;;4.50;;
71496;SDS011;59317;53.218;5.730;2022-08-03T15:08:29;14.73;;;4.20;;
71496;SDS011;59317;53.218;5.730;2022-08-03T15:10:57;17.45;;;4.25;;
71496;SDS011;59317;53.218;5.730;2022-08-03T15:13:23;14.77;;;3.60;;
71496;SDS011;59317;53.218;5.730;2022-08-03T15:15:56;15.57;;;3.92;;
71496;SDS011;59317;53.218;5.730;2022-08-03T15:18:22;17.85;;;4.03;;
71496;SDS011;59317;53.218;5.730;2022-08-03T15:20:48;17.98;;;4.07;;
71496;SDS011;59317;53.218;5.730;2022-08-03T15:23:15;14.50;;;3.78;;
71496;SDS011;59317;53.218;5.730;2022-08-03T15:25:54;18.83;;;4.07;;
71496;SDS011;59317;53.218;5.730;2022-08-03T15:28:23;17.38;;;3.97;;
71496;SDS011;59317;53.218;5.730;2022-08-03T15:33:33;14.95;;;3.95;;
71496;SDS011;59317;53.218;5.730;2022-08-03T15:36:05;17.05;;;3.95;;
71496;SDS011;59317;53.218;5.730;2022-08-03T15:38:31;15.43;;;4.00;;
71496;SDS011;59317;53.218;5.730;2022-08-03T15:41:16;17.35;;;3.95;;
71496;SDS011;59317;53.218;5.730;2022-08-03T15:43:46;14.75;;;3.92;;
71496;SDS011;59317;53.218;5.730;2022-08-03T15:46:18;17.75;;;3.97;;
71496;SDS011;59317;53.218;5.730;2022-08-03T15:48:45;17.17;;;4.23;;
71496;SDS011;59317;53.218;5.730;2022-08-03T15:51:11;15.85;;;3.75;;
71496;SDS011;59317;53.218;5.730;2022-08-03T15:53:51;17.73;;;4.18;;
71496;SDS011;59317;53.218;5.730;2022-08-03T15:56:17;17.30;;;4.10;;
71496;SDS011;59317;53.218;5.730;2022-08-03T16:01:29;13.80;;;4.10;;
71496;SDS011;59317;53.218;5.730;2022-08-03T16:04:04;17.03;;;4.03;;
71496;SDS011;59317;53.218;5.730;2022-08-03T16:06:30;13.70;;;3.92;;
71496;SDS011;59317;53.218;5.730;2022-08-03T16:09:03;18.85;;;3.58;;
71496;SDS011;59317;53.218;5.730;2022-08-03T16:11:42;15.63;;;4.10;;
71496;SDS011;59317;53.218;5.730;2022-08-03T16:14:15;15.50;;;3.70;;
71496;SDS011;59317;53.218;5.730;2022-08-03T16:17:02;17.30;;;3.50;;
71496;SDS011;59317;53.218;5.730;2022-08-03T16:19:34;15.48;;;3.65;;